createdAt,value
2019-01-14T00:00:11.767Z,11.70
2019-01-14T00:02:40.851Z,11.70
2019-01-14T00:05:10.180Z,11.80
2019-01-14T00:07:38.863Z,11.80
2019-01-14T00:10:07.823Z,11.30
2019-01-14T00:12:36.605Z,11.60
2019-01-14T00:15:06.188Z,11.60
2019-01-14T00:17:34.908Z,11.70
2019-01-14T00:20:03.654Z,11.60
2019-01-14T00:22:32.319Z,11.70
2019-01-14T00:25:01.003Z,11.50
2019-01-14T00:27:29.867Z,11.70
2019-01-14T00:29:58.730Z,11.60
2019-01-14T00:32:27.590Z,11.50
2019-01-14T00:35:09.863Z,11.70
2019-01-14T00:37:38.531Z,11.60
2019-01-14T00:40:09.603Z,11.50
2019-01-14T00:42:41.565Z,11.40
2019-01-14T00:45:10.202Z,11.40
2019-01-14T00:47:38.822Z,11.30
2019-01-14T00:50:07.919Z,11.30
2019-01-14T00:52:36.489Z,11.30
2019-01-14T00:55:05.362Z,11.50
2019-01-14T00:57:34.222Z,11.40
2019-01-14T01:00:03.743Z,11.50
2019-01-14T01:02:32.358Z,11.60
2019-01-14T01:05:01.173Z,11.30
2019-01-14T01:07:29.750Z,11.20
2019-01-14T01:09:58.401Z,11.20
2019-01-14T01:12:27.080Z,11.30
2019-01-14T01:14:55.679Z,11.50
2019-01-14T01:17:24.774Z,11.30
2019-01-14T01:19:53.598Z,11.50
2019-01-14T01:22:22.182Z,11.20
2019-01-14T01:24:51.054Z,11.30
2019-01-14T01:27:19.669Z,11.10
2019-01-14T01:29:48.288Z,11.30
2019-01-14T01:32:16.867Z,11.40
2019-01-14T01:34:45.460Z,11.40
2019-01-14T01:37:15.346Z,11.60
2019-01-14T01:39:44.017Z,11.60
2019-01-14T01:42:12.620Z,11.60
2019-01-14T01:44:41.337Z,11.40
2019-01-14T01:47:09.945Z,11.40
2019-01-14T01:49:38.550Z,11.40
2019-01-14T01:52:07.166Z,11.20
2019-01-14T01:54:36.050Z,11.40
2019-01-14T01:57:04.629Z,11.50
2019-01-14T01:59:33.487Z,11.50
2019-01-14T02:02:02.315Z,11.10
2019-01-14T02:04:31.035Z,11.00
2019-01-14T02:06:59.607Z,11.30
2019-01-14T02:09:30.483Z,11.40
2019-01-14T02:11:59.029Z,11.30
2019-01-14T02:14:27.879Z,11.30
2019-01-14T02:16:56.735Z,11.40
2019-01-14T02:19:25.575Z,11.50
2019-01-14T02:21:54.180Z,11.40
2019-01-14T02:24:22.797Z,11.60
2019-01-14T02:26:51.695Z,11.40
2019-01-14T02:29:20.599Z,11.30
2019-01-14T02:31:49.212Z,11.40
2019-01-14T02:34:18.078Z,11.60
2019-01-14T02:36:48.610Z,11.60
2019-01-14T02:39:16.982Z,11.50
2019-01-14T02:41:45.811Z,11.60
2019-01-14T02:44:14.402Z,11.60
2019-01-14T02:46:43.261Z,11.50
2019-01-14T02:49:11.860Z,11.50
2019-01-14T02:51:40.447Z,11.10
2019-01-14T02:54:09.552Z,11.30
2019-01-14T02:56:38.126Z,11.40
2019-01-14T02:59:06.733Z,11.40
2019-01-14T03:01:35.308Z,11.20
2019-01-14T03:04:04.169Z,11.20
2019-01-14T03:06:32.767Z,11.30
2019-01-14T03:09:01.408Z,11.10
2019-01-14T03:11:30.030Z,11.00
2019-01-14T03:13:58.647Z,11.10
2019-01-14T03:16:27.482Z,11.00
2019-01-14T03:18:56.367Z,10.90
2019-01-14T03:21:24.964Z,10.70
2019-01-14T03:23:53.583Z,10.50
2019-01-14T03:26:22.461Z,10.60
2019-01-14T03:28:51.074Z,10.70
2019-01-14T03:31:19.675Z,10.60
2019-01-14T03:33:48.234Z,10.40
2019-01-14T03:36:16.822Z,10.50
2019-01-14T03:38:45.655Z,10.30
2019-01-14T03:41:14.269Z,10.50
2019-01-14T03:43:42.847Z,10.40
2019-01-14T03:46:11.439Z,10.70
2019-01-14T03:48:40.038Z,10.40
2019-01-14T03:51:08.635Z,10.40
2019-01-14T03:53:37.275Z,10.70
2019-01-14T03:56:06.106Z,10.70
2019-01-14T03:58:34.691Z,10.40
2019-01-14T04:01:03.380Z,10.50
2019-01-14T04:03:31.942Z,10.10
2019-01-14T04:06:00.530Z,10.20
2019-01-14T04:08:29.116Z,10.30
2019-01-14T04:10:57.727Z,10.50
2019-01-14T04:13:26.306Z,10.40
2019-01-14T04:15:55.180Z,10.40
2019-01-14T04:18:23.772Z,10.40
2019-01-14T04:20:52.355Z,10.40
2019-01-14T04:23:21.201Z,10.40
2019-01-14T04:25:50.063Z,10.20
2019-01-14T04:28:18.892Z,9.90
2019-01-14T04:30:47.500Z,10.00
2019-01-14T04:33:16.571Z,9.90
2019-01-14T04:35:45.174Z,10.00
2019-01-14T04:38:13.808Z,9.90
2019-01-14T04:40:42.449Z,10.30
2019-01-14T04:43:11.321Z,10.60
2019-01-14T04:45:39.917Z,10.70
2019-01-14T04:48:08.634Z,10.70
2019-01-14T04:50:37.264Z,10.50
2019-01-14T04:53:06.107Z,10.40
2019-01-14T04:55:34.959Z,10.70
2019-01-14T04:58:03.535Z,10.70
2019-01-14T05:00:32.624Z,10.50
2019-01-14T05:03:01.183Z,10.60
2019-01-14T05:05:30.068Z,10.60
2019-01-14T05:07:58.652Z,10.40
2019-01-14T05:10:27.250Z,10.40
2019-01-14T05:12:58.159Z,10.40
2019-01-14T05:15:28.953Z,10.40
2019-01-14T05:17:57.535Z,10.10
2019-01-14T05:20:27.023Z,9.70
2019-01-14T05:22:56.475Z,10.00
2019-01-14T05:25:25.178Z,9.90
2019-01-14T05:27:53.730Z,9.90
2019-01-14T05:30:22.359Z,9.90
2019-01-14T05:32:50.934Z,9.90
2019-01-14T05:35:19.508Z,10.20
2019-01-14T05:37:48.101Z,10.50
2019-01-14T05:40:18.839Z,10.60
2019-01-14T05:42:47.451Z,10.60
2019-01-14T05:45:16.321Z,10.70
2019-01-14T05:47:45.232Z,10.70
2019-01-14T05:50:13.875Z,10.50
2019-01-14T05:52:42.720Z,10.40
2019-01-14T05:55:11.572Z,10.40
2019-01-14T05:57:40.239Z,10.50
2019-01-14T06:00:16.100Z,10.50
2019-01-14T06:02:44.710Z,10.70
2019-01-14T06:05:13.278Z,10.70
2019-01-14T06:07:44.962Z,10.70
2019-01-14T06:10:12.174Z,10.70
2019-01-14T06:12:40.788Z,10.50
2019-01-14T06:15:09.767Z,10.60
2019-01-14T06:17:38.375Z,10.50
2019-01-14T06:20:08.839Z,10.60
2019-01-14T06:22:37.926Z,10.60
2019-01-14T06:25:07.481Z,10.60
2019-01-14T06:27:36.071Z,10.60
2019-01-14T06:30:08.543Z,10.30
2019-01-14T06:32:37.156Z,10.40
2019-01-14T06:35:05.895Z,10.30
2019-01-14T06:37:34.514Z,10.20
2019-01-14T06:40:03.448Z,9.90
2019-01-14T06:42:32.026Z,9.60
2019-01-14T06:45:00.836Z,9.60
2019-01-14T06:47:29.436Z,9.40
2019-01-14T06:49:58.083Z,9.50
2019-01-14T06:52:26.976Z,9.70
2019-01-14T06:54:55.794Z,9.60
2019-01-14T06:57:24.459Z,9.70
2019-01-14T06:59:53.036Z,9.60
2019-01-14T07:02:21.631Z,9.90
2019-01-14T07:04:50.508Z,9.80
2019-01-14T07:07:19.107Z,9.90
2019-01-14T07:09:47.690Z,9.80
2019-01-14T07:12:16.292Z,9.80
2019-01-14T07:14:44.870Z,9.80
2019-01-14T07:17:13.707Z,9.80
2019-01-14T07:19:43.383Z,9.90
2019-01-14T07:22:12.223Z,9.90
2019-01-14T07:24:40.844Z,9.80
2019-01-14T07:27:09.688Z,10.00
2019-01-14T07:29:38.295Z,10.00
2019-01-14T07:32:06.896Z,10.00
2019-01-14T07:34:35.463Z,9.90
2019-01-14T07:37:04.452Z,9.80
2019-01-14T07:39:33.277Z,9.80
2019-01-14T07:42:01.856Z,9.90
2019-01-14T07:44:30.699Z,9.60
2019-01-14T07:46:59.572Z,9.70
2019-01-14T07:49:28.673Z,9.80
2019-01-14T07:51:57.283Z,9.70
2019-01-14T07:54:25.880Z,9.40
2019-01-14T07:56:55.308Z,9.70
2019-01-14T07:59:23.935Z,9.70
2019-01-14T08:01:52.552Z,9.60
2019-01-14T08:04:21.127Z,9.50
2019-01-14T08:06:49.736Z,9.60
2019-01-14T08:09:18.320Z,9.60
2019-01-14T08:11:46.898Z,9.70
2019-01-14T08:14:15.490Z,9.50
2019-01-14T08:16:44.559Z,9.50
2019-01-14T08:19:13.184Z,9.70
2019-01-14T08:21:42.008Z,9.90
2019-01-14T08:24:10.606Z,9.90
2019-01-14T08:26:39.203Z,9.90
2019-01-14T08:29:07.904Z,9.80
2019-01-14T08:31:36.497Z,9.70
2019-01-14T08:34:05.331Z,9.70
2019-01-14T08:36:33.924Z,9.90
2019-01-14T08:39:02.701Z,9.80
2019-01-14T08:41:34.510Z,9.90
2019-01-14T08:44:08.267Z,9.70
2019-01-14T08:46:36.948Z,9.60
2019-01-14T08:49:05.575Z,9.00
2019-01-14T08:51:34.148Z,9.00
2019-01-14T08:54:02.750Z,9.20
2019-01-14T08:56:31.315Z,9.00
2019-01-14T08:59:00.176Z,8.70
2019-01-14T09:01:28.742Z,8.80
2019-01-14T09:03:57.324Z,9.40
2019-01-14T09:06:25.921Z,9.70
2019-01-14T09:08:54.552Z,9.80
2019-01-14T09:11:23.386Z,9.40
2019-01-14T09:13:52.243Z,9.90
2019-01-14T09:16:20.815Z,10.10
2019-01-14T09:18:49.672Z,10.20
2019-01-14T09:21:18.273Z,10.40
2019-01-14T09:23:47.199Z,10.00
2019-01-14T09:26:15.755Z,10.30
2019-01-14T09:28:44.347Z,10.70
2019-01-14T09:31:12.933Z,10.70
2019-01-14T09:33:41.812Z,10.90
2019-01-14T09:36:10.487Z,10.70
2019-01-14T09:38:39.083Z,10.30
2019-01-14T09:41:07.663Z,10.50
2019-01-14T09:43:39.524Z,10.40
2019-01-14T09:46:08.736Z,10.40
2019-01-14T09:48:37.603Z,10.20
2019-01-14T09:51:06.183Z,10.00
2019-01-14T09:53:35.015Z,10.00
2019-01-14T09:56:03.836Z,10.20
2019-01-14T09:58:32.487Z,10.10
2019-01-14T10:01:01.069Z,10.00
2019-01-14T10:03:29.792Z,9.90
2019-01-14T10:05:58.407Z,10.40
2019-01-14T10:08:27.008Z,10.30
2019-01-14T10:10:55.663Z,10.20
2019-01-14T10:13:24.255Z,10.40
2019-01-14T10:15:52.843Z,10.10
2019-01-14T10:18:21.471Z,10.50
2019-01-14T10:20:50.289Z,10.10
2019-01-14T10:23:18.878Z,9.90
2019-01-14T10:25:47.608Z,10.20
2019-01-14T10:28:16.235Z,10.00
2019-01-14T10:30:45.319Z,9.80
2019-01-14T10:33:14.167Z,9.90
2019-01-14T10:35:42.747Z,10.00
2019-01-14T10:38:11.605Z,10.40
2019-01-14T10:40:40.193Z,10.30
2019-01-14T10:43:08.793Z,10.10
2019-01-14T10:45:37.381Z,10.20
2019-01-14T10:48:05.977Z,10.60
2019-01-14T10:50:35.059Z,10.50
2019-01-14T10:53:03.687Z,10.50
2019-01-14T10:55:32.364Z,10.40
2019-01-14T10:58:00.978Z,10.80
2019-01-14T11:00:30.103Z,11.20
2019-01-14T11:02:59.844Z,10.90
2019-01-14T11:05:29.918Z,11.00
2019-01-14T11:07:58.508Z,11.10
2019-01-14T11:10:27.101Z,11.10
2019-01-14T11:12:55.687Z,11.70
2019-01-14T11:15:24.288Z,12.00
2019-01-14T11:17:52.871Z,11.80
2019-01-14T11:20:31.432Z,11.20
2019-01-14T11:23:00.698Z,11.00
2019-01-14T11:25:29.664Z,11.30
2019-01-14T11:27:58.505Z,11.30
2019-01-14T11:30:31.690Z,10.90
2019-01-14T11:33:00.285Z,11.00
2019-01-14T11:35:29.166Z,11.40
2019-01-14T11:37:57.766Z,11.50
2019-01-14T11:40:32.620Z,11.60
2019-01-14T11:43:01.439Z,11.70
2019-01-14T11:45:30.025Z,11.40
2019-01-14T11:47:58.608Z,11.40
2019-01-14T11:50:27.223Z,12.40
2019-01-14T11:52:55.811Z,13.00
2019-01-14T11:55:24.403Z,14.00
2019-01-14T11:57:53.272Z,14.80
2019-01-14T12:00:23.605Z,16.90
2019-01-14T12:02:52.260Z,20.00
2019-01-14T12:05:20.850Z,21.00
2019-01-14T12:07:49.440Z,19.60
2019-01-14T12:10:24.640Z,18.40
2019-01-14T12:12:52.000Z,19.80
2019-01-14T12:15:25.184Z,20.20
2019-01-14T12:17:53.986Z,20.90
2019-01-14T12:20:22.656Z,20.40
2019-01-14T12:22:51.229Z,17.70
2019-01-14T12:25:20.137Z,16.50
2019-01-14T12:27:48.939Z,15.60
2019-01-14T12:30:37.510Z,15.00
2019-01-14T12:33:06.822Z,14.10
2019-01-14T12:35:35.410Z,13.00
2019-01-14T12:38:04.236Z,12.60
2019-01-14T12:40:33.091Z,12.30
2019-01-14T12:43:02.176Z,12.30
2019-01-14T12:45:30.777Z,12.30
2019-01-14T12:47:59.352Z,12.60
2019-01-14T12:50:28.200Z,12.10
2019-01-14T12:52:56.780Z,11.90
2019-01-14T12:55:25.364Z,12.20
2019-01-14T12:57:54.207Z,12.40
2019-01-14T13:00:24.815Z,12.50
2019-01-14T13:02:58.320Z,12.40
2019-01-14T13:05:24.099Z,12.40
2019-01-14T13:07:52.671Z,12.60
2019-01-14T13:10:21.496Z,12.10
2019-01-14T13:12:50.122Z,12.10
2019-01-14T13:15:20.743Z,12.20
2019-01-14T13:17:49.386Z,12.10
2019-01-14T13:20:19.427Z,11.90
2019-01-14T13:22:48.255Z,12.30
2019-01-14T13:25:16.878Z,12.00
2019-01-14T13:27:45.455Z,12.00
2019-01-14T13:30:16.889Z,12.10
2019-01-14T13:32:45.715Z,11.80
2019-01-14T13:35:14.335Z,11.70
2019-01-14T13:37:42.899Z,11.50
2019-01-14T13:40:11.863Z,11.70
2019-01-14T13:42:40.452Z,11.70
2019-01-14T13:45:11.259Z,11.20
2019-01-14T13:47:39.839Z,11.70
2019-01-14T13:50:09.985Z,11.30
2019-01-14T13:52:38.556Z,11.80
2019-01-14T13:55:07.183Z,11.30
2019-01-14T13:57:35.818Z,11.10
2019-01-14T14:00:06.474Z,10.90
2019-01-14T14:02:35.330Z,10.70
2019-01-14T14:05:04.003Z,10.10
2019-01-14T14:07:32.600Z,10.40
2019-01-14T14:10:01.167Z,10.50
2019-01-14T14:12:29.756Z,10.60
2019-01-14T14:14:58.319Z,10.60
2019-01-14T14:17:26.907Z,10.10
2019-01-14T14:19:55.490Z,9.80
2019-01-14T14:22:24.067Z,9.90
2019-01-14T14:24:52.654Z,10.20
2019-01-14T14:27:21.260Z,10.10
2019-01-14T14:29:49.844Z,10.10
2019-01-14T14:32:20.560Z,10.60
2019-01-14T14:34:49.384Z,10.60
2019-01-14T14:37:18.239Z,10.10
2019-01-14T14:39:48.648Z,10.10
2019-01-14T14:42:17.351Z,9.70
2019-01-14T14:44:46.171Z,9.90
2019-01-14T14:47:14.759Z,9.60
2019-01-14T14:49:43.348Z,9.30
2019-01-14T14:52:12.227Z,9.30
2019-01-14T14:54:40.821Z,9.40
2019-01-14T14:57:09.471Z,9.80
2019-01-14T14:59:38.046Z,9.70
2019-01-14T15:02:06.896Z,9.90
2019-01-14T15:04:35.771Z,9.90
2019-01-14T15:07:04.616Z,9.50
2019-01-14T15:09:33.211Z,9.50
2019-01-14T15:12:01.850Z,9.90
2019-01-14T15:14:30.659Z,9.70
2019-01-14T15:16:59.247Z,9.70
2019-01-14T15:19:28.068Z,9.30
2019-01-14T15:21:56.931Z,9.70
2019-01-14T15:24:25.743Z,9.90
2019-01-14T15:26:54.602Z,9.90
2019-01-14T15:29:23.411Z,10.00
2019-01-14T15:31:52.524Z,10.00
2019-01-14T15:34:21.091Z,10.20
2019-01-14T15:36:49.691Z,10.10
2019-01-14T15:39:18.543Z,10.00
2019-01-14T15:41:47.164Z,10.00
2019-01-14T15:44:15.747Z,10.10
2019-01-14T15:46:44.342Z,10.30
2019-01-14T15:49:13.154Z,9.80
2019-01-14T15:51:41.998Z,9.70
2019-01-14T15:54:10.571Z,9.90
2019-01-14T15:56:39.136Z,10.00
2019-01-14T15:59:07.757Z,10.00
2019-01-14T16:01:36.341Z,10.20
2019-01-14T16:04:04.916Z,10.20
2019-01-14T16:06:33.495Z,10.30
2019-01-14T16:09:02.109Z,10.00
2019-01-14T16:11:30.687Z,10.00
2019-01-14T16:13:59.318Z,10.10
2019-01-14T16:16:27.872Z,10.30
2019-01-14T16:18:56.511Z,10.10
2019-01-14T16:21:25.095Z,10.20
2019-01-14T16:23:53.943Z,10.20
2019-01-14T16:26:22.523Z,10.10
2019-01-14T16:28:51.615Z,10.20
2019-01-14T16:31:20.440Z,10.40
2019-01-14T16:33:49.051Z,10.00
2019-01-14T16:36:17.639Z,9.90
2019-01-14T16:38:46.279Z,9.30
2019-01-14T16:41:14.855Z,9.20
2019-01-14T16:43:43.496Z,8.90
2019-01-14T16:46:12.088Z,9.20
2019-01-14T16:48:40.964Z,9.20
2019-01-14T16:51:09.544Z,9.00
2019-01-14T16:53:38.169Z,8.50
2019-01-14T16:56:06.815Z,8.50
2019-01-14T16:58:35.494Z,8.50
2019-01-14T17:01:04.099Z,8.30
2019-01-14T17:03:33.159Z,8.40
2019-01-14T17:06:01.775Z,8.40
2019-01-14T17:08:30.401Z,8.40
2019-01-14T17:10:59.288Z,8.30
2019-01-14T17:13:27.915Z,8.40
2019-01-14T17:15:56.499Z,8.30
2019-01-14T17:18:25.124Z,8.20
2019-01-14T17:20:54.183Z,8.30
2019-01-14T17:23:22.918Z,8.60
2019-01-14T17:25:51.584Z,9.10
2019-01-14T17:28:20.696Z,9.30
2019-01-14T17:30:49.577Z,9.50
2019-01-14T17:33:18.299Z,9.70
2019-01-14T17:35:46.879Z,9.40
2019-01-14T17:38:15.531Z,9.60
2019-01-14T17:40:46.417Z,9.80
2019-01-14T17:43:15.115Z,9.90
2019-01-14T17:45:43.714Z,9.80
2019-01-14T17:48:12.748Z,9.30
2019-01-14T17:50:41.320Z,8.90
2019-01-14T17:53:11.218Z,8.60
2019-01-14T17:55:40.073Z,8.60
2019-01-14T17:58:08.715Z,8.80
2019-01-14T18:00:37.288Z,9.00
2019-01-14T18:03:06.151Z,9.40
2019-01-14T18:05:34.999Z,9.60
2019-01-14T18:08:03.653Z,9.80
2019-01-14T18:10:32.220Z,9.70
2019-01-14T18:13:01.281Z,8.90
2019-01-14T18:15:29.882Z,9.10
2019-01-14T18:17:58.457Z,9.20
2019-01-14T18:20:27.081Z,9.20
2019-01-14T18:22:55.888Z,9.20
2019-01-14T18:25:24.498Z,9.20
2019-01-14T18:27:53.094Z,8.90
2019-01-14T18:30:21.978Z,8.60
2019-01-14T18:32:50.586Z,8.80
2019-01-14T18:35:19.558Z,8.80
2019-01-14T18:37:50.275Z,8.90
2019-01-14T18:40:19.154Z,8.70
2019-01-14T18:42:47.876Z,8.60
2019-01-14T18:45:17.940Z,8.40
2019-01-14T18:47:47.885Z,8.30
2019-01-14T18:50:18.778Z,8.50
2019-01-14T18:52:47.393Z,8.50
2019-01-14T18:55:16.043Z,8.50
2019-01-14T18:57:44.659Z,8.70
2019-01-14T19:00:18.836Z,8.80
2019-01-14T19:02:47.530Z,8.70
2019-01-14T19:05:16.391Z,8.80
2019-01-14T19:07:45.200Z,8.80
2019-01-14T19:10:14.035Z,8.90
2019-01-14T19:12:43.112Z,9.40
2019-01-14T19:15:13.587Z,9.30
2019-01-14T19:17:42.160Z,9.70
2019-01-14T19:20:13.883Z,9.90
2019-01-14T19:22:42.459Z,10.00
2019-01-14T19:25:11.108Z,9.80
2019-01-14T19:27:39.685Z,9.80
2019-01-14T19:30:10.274Z,9.60
2019-01-14T19:32:38.961Z,9.20
2019-01-14T19:35:07.915Z,9.30
2019-01-14T19:37:36.841Z,8.90
2019-01-14T19:40:07.993Z,8.70
2019-01-14T19:42:36.635Z,8.40
2019-01-14T19:45:05.723Z,8.50
2019-01-14T19:47:34.438Z,8.50
2019-01-14T19:50:03.183Z,8.30
2019-01-14T19:52:31.765Z,8.50
2019-01-14T19:55:00.413Z,8.40
2019-01-14T19:57:29.027Z,8.30
2019-01-14T19:59:57.723Z,8.30
2019-01-14T20:02:26.366Z,8.50
2019-01-14T20:04:55.248Z,8.50
2019-01-14T20:07:23.871Z,8.60
2019-01-14T20:09:52.730Z,8.50
2019-01-14T20:12:21.691Z,8.50
2019-01-14T20:14:50.526Z,8.50
2019-01-14T20:17:19.143Z,8.50
2019-01-14T20:19:47.735Z,8.30
2019-01-14T20:22:16.442Z,8.40
2019-01-14T20:24:45.048Z,8.60
2019-01-14T20:27:13.669Z,9.10
2019-01-14T20:29:42.567Z,9.10
2019-01-14T20:32:11.545Z,8.80
2019-01-14T20:34:40.271Z,8.90
2019-01-14T20:37:08.894Z,8.90
2019-01-14T20:39:37.719Z,9.00
2019-01-14T20:42:07.860Z,8.70
2019-01-14T20:44:36.681Z,8.60
2019-01-14T20:47:05.805Z,8.70
2019-01-14T20:49:34.512Z,8.60
2019-01-14T20:52:03.195Z,8.50
2019-01-14T20:54:32.067Z,8.50
2019-01-14T20:57:00.717Z,8.60
2019-01-14T20:59:33.437Z,8.50
2019-01-14T21:01:59.759Z,8.40
2019-01-14T21:04:28.375Z,8.40
2019-01-14T21:06:57.009Z,8.30
2019-01-14T21:09:25.621Z,8.50
2019-01-14T21:11:54.483Z,8.30
2019-01-14T21:14:23.299Z,8.30
2019-01-14T21:16:51.927Z,8.30
2019-01-14T21:19:20.487Z,8.60
2019-01-14T21:21:49.124Z,8.50
2019-01-14T21:24:17.725Z,8.40
2019-01-14T21:26:46.347Z,8.50
2019-01-14T21:29:14.919Z,8.50
2019-01-14T21:31:43.923Z,8.60
2019-01-14T21:34:12.483Z,8.60
2019-01-14T21:36:41.088Z,8.60
2019-01-14T21:39:11.710Z,8.40
2019-01-14T21:41:40.308Z,8.40
2019-01-14T21:44:08.864Z,8.50
2019-01-14T21:46:37.475Z,8.50
2019-01-14T21:49:06.057Z,8.30
2019-01-14T21:51:34.647Z,8.30
2019-01-14T21:54:03.219Z,8.20
2019-01-14T21:56:31.794Z,8.20
2019-01-14T21:59:00.680Z,8.10
2019-01-14T22:01:29.600Z,8.20
2019-01-14T22:03:58.439Z,8.30
2019-01-14T22:06:27.393Z,8.10
2019-01-14T22:08:56.047Z,8.10
2019-01-14T22:11:24.928Z,8.10
2019-01-14T22:13:53.876Z,8.10
2019-01-14T22:16:22.483Z,8.00
2019-01-14T22:18:51.139Z,8.10
2019-01-14T22:21:19.787Z,7.90
2019-01-14T22:23:48.615Z,7.90
2019-01-14T22:26:17.260Z,8.00
2019-01-14T22:28:46.376Z,8.00
2019-01-14T22:31:15.187Z,7.90
2019-01-14T22:33:43.780Z,7.90
2019-01-14T22:36:12.364Z,7.80
2019-01-14T22:38:41.227Z,7.80
2019-01-14T22:41:09.805Z,7.90
2019-01-14T22:43:38.384Z,7.80
2019-01-14T22:46:06.963Z,7.80
2019-01-14T22:48:35.566Z,7.80
2019-01-14T22:51:04.152Z,7.80
2019-01-14T22:53:36.629Z,8.00
2019-01-14T22:56:05.255Z,7.80
2019-01-14T22:58:33.891Z,7.80
2019-01-14T23:01:38.984Z,7.70
2019-01-14T23:04:07.738Z,7.90
2019-01-14T23:06:36.331Z,7.90
2019-01-14T23:09:07.911Z,7.90
2019-01-14T23:11:36.501Z,7.90
2019-01-14T23:14:05.100Z,7.90
2019-01-14T23:16:33.936Z,7.80
2019-01-14T23:19:02.544Z,8.00
2019-01-14T23:21:31.210Z,7.90
2019-01-14T23:23:59.807Z,7.70
2019-01-14T23:26:28.407Z,7.80
2019-01-14T23:28:57.491Z,7.80
2019-01-14T23:31:26.079Z,7.80
2019-01-14T23:33:54.943Z,7.70
2019-01-14T23:36:23.714Z,7.70
2019-01-14T23:38:52.621Z,7.90
2019-01-14T23:41:21.196Z,7.80
2019-01-14T23:43:49.804Z,7.80
2019-01-14T23:46:18.652Z,7.80
2019-01-14T23:48:47.234Z,7.70
2019-01-14T23:51:15.810Z,7.60
2019-01-14T23:53:46.233Z,7.70
2019-01-14T23:56:14.822Z,7.60
2019-01-14T23:58:43.479Z,7.60
